KBMT/BMT METAR and TAF weather

Enter ICAO airport designator
Station Type Date Time Source
KBMT METAR 2021/04/17 02:15 UTC NOAA

KBMT 170215Z AUTO 02008KT 7SM -DZ BKN008 OVC011 18/17 A2981 RMK AO2 LTG DSNT E T01760170


Station Type Date Time Source
KBMT Decoded METAR 2021/04/17 02:15 UTC NOAA

Station name not available
Apr 16, 2021 - 10:15 PM EDT / 2021.04.17 0215 UTC
Wind: from the NNE (020 degrees) at 9 MPH (8 KT):0
Visibility: 7 mile(s):0
Sky conditions: overcast
Weather: light drizzle; Lightning observed
Temperature: 63.7 F (17.6 C)
Dew Point: 62.6 F (17.0 C)
Relative Humidity: 96%
Pressure (altimeter): 29.81 in. Hg (1009 hPa)
ob: KBMT 170215Z AUTO 02008KT 7SM -DZ BKN008 OVC011 18/17 A2981 RMK AO2 LTG DSNT E T01760170
cycle: 2

Station Type Date Time Source
KBMT TAF UTC NOAA

Error!

Example: see airport list